Lodz Lublinek Airport Lodz Lublinek PL
ICAO: EPLL
IATA: LCJ
Category: Medium
Scheduled Services: Yes

Elevation: 604 ft
TransAlt. 6562 ft.

Airport Communications:
INFO:122.7
TWR:124.225

EPLL Zoom In..

If you have problems with the map follow the link
https://www.worldairports.se/pages/airport.php?
ICAO=EPLL

Runways:

(A) RW 07 length 8202 ft width 148 ft
---- / hdg 66

(B) RW 25 length 8202 ft width 148 ft
ILS 110.50 / hdg 246

Location; EPLL
Day. 14 / Time. 09.30 Zulu
* QNH: 1013
* Temperature: 03° c. 37.4°f.
* Wind from: VRB° Speed 02 kn.
Dewpoint: 02° c.
Visibility: 10 km or more.
Clouds: Broken 600 ft.

EPLL 140930Z VRB02KT 9999 BKN006 03/02 Q1013


Wind From VRB°
Speed 02 kn.

 
 
jpsmedia worldairports.se 2019   terms of use